To NAV CANADA Home Page Login to a new session Search on AWWS site Feedback and Comments Disclaimer Vers la page française équivalente Tips FAQ What's new on the site To the Forecasts and Observations / NOTAM section To "File a Flight Plan" website Publications and other links Update of the User's profile FIC Telephone Numbers My Weather Data Folder Route Weather Data Regional Weather Data Local Weather Data To the Forecasts and Observations / NOTAM section
Request Generated 02/12/2016 at 20:21:08 UTC . Weather information available at that time is displayed.

METAR/TAF

NORTH BATTLEFORD/SK    (show WxCam)

SPECI CYQW 122002Z AUTO 12016KT 9SM CLR M17/M21 A3045 RMK SLP369=
METAR CYQW 122000Z AUTO 12016KT 9SM -SN CLR M17/M21 A3045 RMK SLP369=
SPECI CYQW 121952Z AUTO 11015G20KT 9SM -SN CLR M17/M21 A3045 RMK
SLP369=
METAR CYQW 121900Z AUTO 12017KT 9SM CLR M18/M21 A3049 RMK SLP380=
SPECI CYQW 121848Z AUTO 12017KT 9SM CLR M18/M21 A3049 RMK SLP382=
SPECI CYQW 121840Z AUTO 12017KT 6SM -SN CLR M18/M21 A3050 RMK PRESFR
SLP384=
SPECI CYQW 121834Z AUTO 12015KT 3SM -SN CLR M18/M21 A3050 RMK SLP386=
SPECI CYQW 121825Z AUTO 11015KT 2 1/2SM -SN CLR M18/M21 A3051 RMK VIS
VRB 1 1/4-3 SLP388=
SPECI CYQW 121824Z AUTO 11015KT 2SM -SN CLR M18/M22 A3051 RMK VIS VRB
1 1/4-3 SLP388=
SPECI CYQW 121821Z AUTO 11014KT 2 1/2SM -SN CLR M18/M22 A3051 RMK VIS
VRB 1 1/4-3 SLP388=
SPECI CYQW 121820Z AUTO 12015KT 2 1/4SM -SN CLR M18/M22 A3051 RMK VIS
VRB 1 1/4-3 SLP388=
SPECI CYQW 121819Z AUTO 11015KT 2 1/2SM -SN CLR M18/M22 A3051 RMK VIS
VRB 1 1/4-3 SLP388=
SPECI CYQW 121810Z AUTO 12014KT 3SM -SN CLR M18/M22 A3051 RMK SLP390=
SPECI CYQW 121805Z AUTO 12014KT 2 1/2SM -SN CLR M18/M22 A3051 RMK VIS
VRB 1 1/2-3 SLP390=
SPECI CYQW 121801Z AUTO 12014KT 3SM -SN CLR M18/M22 A3052 RMK SLP391=
METAR CYQW 121800Z AUTO 12014KT 2 1/2SM -SN CLR M18/M22 A3052 RMK
SLP391=

TAF CYQW 121738Z 1218/1306 12015KT P6SM SKC TEMPO 1218/1221 5SM IC
FM122100 12018KT P6SM FEW060 BKN160
FM130100 12020KT P6SM BKN030 OVC160 TEMPO 1301/1306 4SM -SN BLSN
BKN020 OVC160
RMK FCST BASED ON AUTO OBS. AUTO OBS REP NON-REPRESENTATIVE VIS
NXT FCST BY 130000Z=
Your time UTC time
Weather data provided by Environment Canada and NAV CANADA